Lifter — V2DD4 — position and weather

sailwx.info

Track history (hours):
 
Tides and Currents Weather Stations Pressure Air Temp Water Temp Dewpoint Dewpoint Depression Visibility Wind Speed Wind Dir Waves Ship Positions

Lifter

Last reported at 2016-Apr-28 20:33 UTC. Time now 2016-Apr-29 10:09 UTC.
Position N 35°09' E 023°24'.

Length 119 m; draft 5 m.

Type: Cargo ship. MMSI: 305175000.

Date/timePositionNaut miles runAvg speedWind from/ knotsBaromVisibWave heightAir tempDewpointWater temp
2016-Apr-28 20:33N 35°09' E 023°24'1212.1
2016-Apr-28 19:32N 35°12' E 023°09'1212.0
2016-Apr-28 18:32N 35°14' E 022°55'41312.4
2016-Apr-27 09:15N 36°39' E 014°35'1113.5
2016-Apr-27 08:28N 36°44' E 014°24'1212.8
2016-Apr-27 07:33N 36°50' E 014°11'1312.7
2016-Apr-27 06:33N 36°54' E 013°56'1312.8
2016-Apr-27 05:33N 36°58' E 013°41'1312.6
2016-Apr-27 04:32N 37°03' E 013°26'3912.8
2016-Apr-27 01:29N 37°18' E 012°41'  
2016-Apr-24 20:09N 36°34' W 000°34'812.9
2016-Apr-24 19:33N 36°33' W 000°44'22213.0
2016-Apr-24 02:34N 35°59' W 005°16'292 9.3
2016-Apr-22 19:10N 38°42' W 010°20'2012.2
2016-Apr-22 17:33N 39°01' W 010°27'1712.2
2016-Apr-22 16:08N 39°18' W 010°32'1012.1
2016-Apr-22 15:21N 39°27' W 010°35'  
2016-Apr-20 09:27N 48°51' W 005°50'1213.6
2016-Apr-20 08:33N 48°58' W 005°35'1413.7
2016-Apr-20 07:33N 49°06' W 005°18'2612.9
2016-Apr-20 05:33N 49°19' W 004°44'1211.8
2016-Apr-20 04:33N 49°25' W 004°28'1311.5
2016-Apr-20 03:27N 49°31' W 004°11'1111.8
2016-Apr-20 02:33N 49°37' W 003°57'1312.6
2016-Apr-20 01:33N 49°43' W 003°41'1413.7
2016-Apr-20 00:33N 49°50' W 003°23'1414.5
2016-Apr-19 23:33N 49°58' W 003°03'1614.3
2016-Apr-19 22:26N 50°03' W 002°40'1213.4
2016-Apr-19 21:31N 50°08' W 002°22'1212.0
2016-Apr-19 20:33N 50°11' W 002°05'1110.7
2016-Apr-19 19:33N 50°15' W 001°49'1010.2
2016-Apr-19 18:33N 50°19' W 001°35'1010.3
2016-Apr-19 17:33N 50°25' W 001°21'1111.0
2016-Apr-19 16:34N 50°32' W 001°09'7 6.7
2016-Apr-19 15:33N 50°38' W 001°03'0 0.1
2016-Apr-19 14:33N 50°38' W 001°03'0 0.0
2016-Apr-19 13:33N 50°38' W 001°03'0 0.0
2016-Apr-19 12:33N 50°38' W 001°03'0 0.0
2016-Apr-19 11:33N 50°38' W 001°03'0 0.1
2016-Apr-19 10:33N 50°38' W 001°03'0 0.0
2016-Apr-19 09:33N 50°38' W 001°03'0 0.2
2016-Apr-19 08:33N 50°38' W 001°03'0 0.0
2016-Apr-19 07:33N 50°38' W 001°03'0 0.0
2016-Apr-19 06:33N 50°38' W 001°03'0 0.0
2016-Apr-19 05:33N 50°38' W 001°03'0 0.0
2016-Apr-19 04:33N 50°38' W 001°03'0 0.1
2016-Apr-19 03:33N 50°38' W 001°03'0 0.1
2016-Apr-19 02:33N 50°38' W 001°03'0 0.0
2016-Apr-19 01:33N 50°38' W 001°03'0 0.0
2016-Apr-19 00:33N 50°38' W 001°03'0 0.0
2016-Apr-18 23:33N 50°38' W 001°03'0 0.0
2016-Apr-18 22:33N 50°38' W 001°03'0 0.1
2016-Apr-18 21:33N 50°38' W 001°03'0 0.2
2016-Apr-18 20:33N 50°38' W 001°03'  
Track history (hours):
 
Tides and Currents Weather Stations Pressure Air Temp Water Temp Dewpoint Dewpoint Depression Visibility Wind Speed Wind Dir Waves Ship Positions

Lifter

Last reported at 2016-Apr-28 20:33 UTC. Time now 2016-Apr-29 10:09 UTC.
Position N 35°09' E 023°24'.

Length 119 m; draft 5 m.

Type: Cargo ship. MMSI: 305175000.

Date/timePositionNaut miles runAvg speedWind from/ knotsBaromVisibWave heightAir tempDewpointWater temp
2016-Apr-28 20:33N 35°09' E 023°24'1212.1
2016-Apr-28 19:32N 35°12' E 023°09'1212.0
2016-Apr-28 18:32N 35°14' E 022°55'41312.4
2016-Apr-27 09:15N 36°39' E 014°35'1113.5
2016-Apr-27 08:28N 36°44' E 014°24'1212.8
2016-Apr-27 07:33N 36°50' E 014°11'1312.7
2016-Apr-27 06:33N 36°54' E 013°56'1312.8
2016-Apr-27 05:33N 36°58' E 013°41'1312.6
2016-Apr-27 04:32N 37°03' E 013°26'3912.8
2016-Apr-27 01:29N 37°18' E 012°41'  
2016-Apr-24 20:09N 36°34' W 000°34'812.9
2016-Apr-24 19:33N 36°33' W 000°44'22213.0
2016-Apr-24 02:34N 35°59' W 005°16'292 9.3
2016-Apr-22 19:10N 38°42' W 010°20'2012.2
2016-Apr-22 17:33N 39°01' W 010°27'1712.2
2016-Apr-22 16:08N 39°18' W 010°32'1012.1
2016-Apr-22 15:21N 39°27' W 010°35'  
2016-Apr-20 09:27N 48°51' W 005°50'1213.6
2016-Apr-20 08:33N 48°58' W 005°35'1413.7
2016-Apr-20 07:33N 49°06' W 005°18'2612.9
2016-Apr-20 05:33N 49°19' W 004°44'1211.8
2016-Apr-20 04:33N 49°25' W 004°28'1311.5
2016-Apr-20 03:27N 49°31' W 004°11'1111.8
2016-Apr-20 02:33N 49°37' W 003°57'1312.6
2016-Apr-20 01:33N 49°43' W 003°41'1413.7
2016-Apr-20 00:33N 49°50' W 003°23'1414.5
2016-Apr-19 23:33N 49°58' W 003°03'1614.3
2016-Apr-19 22:26N 50°03' W 002°40'1213.4
2016-Apr-19 21:31N 50°08' W 002°22'1212.0
2016-Apr-19 20:33N 50°11' W 002°05'1110.7
2016-Apr-19 19:33N 50°15' W 001°49'1010.2
2016-Apr-19 18:33N 50°19' W 001°35'1010.3
2016-Apr-19 17:33N 50°25' W 001°21'1111.0
2016-Apr-19 16:34N 50°32' W 001°09'7 6.7
2016-Apr-19 15:33N 50°38' W 001°03'0 0.1
2016-Apr-19 14:33N 50°38' W 001°03'0 0.0
2016-Apr-19 13:33N 50°38' W 001°03'0 0.0
2016-Apr-19 12:33N 50°38' W 001°03'0 0.0
2016-Apr-19 11:33N 50°38' W 001°03'0 0.1
2016-Apr-19 10:33N 50°38' W 001°03'0 0.0
2016-Apr-19 09:33N 50°38' W 001°03'0 0.2
2016-Apr-19 08:33N 50°38' W 001°03'0 0.0
2016-Apr-19 07:33N 50°38' W 001°03'0 0.0
2016-Apr-19 06:33N 50°38' W 001°03'0 0.0
2016-Apr-19 05:33N 50°38' W 001°03'0 0.0
2016-Apr-19 04:33N 50°38' W 001°03'0 0.1
2016-Apr-19 03:33N 50°38' W 001°03'0 0.1
2016-Apr-19 02:33N 50°38' W 001°03'0 0.0
2016-Apr-19 01:33N 50°38' W 001°03'0 0.0
2016-Apr-19 00:33N 50°38' W 001°03'0 0.0
2016-Apr-18 23:33N 50°38' W 001°03'0 0.0
2016-Apr-18 22:33N 50°38' W 001°03'0 0.1
2016-Apr-18 21:33N 50°38' W 001°03'0 0.2
2016-Apr-18 20:33N 50°38' W 001°03'  

Dump ship's entire track history